sensor_id;sensor_type;location;lat;lon;timestamp;temperature;humidity
71047;SHT31;58703;48.978;8.982;2022-12-31T00:01:15;12.75;94.48
71047;SHT31;58703;48.978;8.982;2022-12-31T00:03:42;12.69;94.95
71047;SHT31;58703;48.978;8.982;2022-12-31T00:06:22;12.77;94.43
71047;SHT31;58703;48.978;8.982;2022-12-31T00:08:48;12.72;94.75
71047;SHT31;58703;48.978;8.982;2022-12-31T00:11:15;12.72;94.99
71047;SHT31;58703;48.978;8.982;2022-12-31T00:13:41;12.60;95.20
71047;SHT31;58703;48.978;8.982;2022-12-31T00:16:35;12.45;95.59
71047;SHT31;58703;48.978;8.982;2022-12-31T00:19:01;12.44;95.82
71047;SHT31;58703;48.978;8.982;2022-12-31T00:21:28;12.39;96.06
71047;SHT31;58703;48.978;8.982;2022-12-31T00:23:54;12.44;96.10
71047;SHT31;58703;48.978;8.982;2022-12-31T00:26:22;12.52;95.59
71047;SHT31;58703;48.978;8.982;2022-12-31T00:28:49;12.55;95.66
71047;SHT31;58703;48.978;8.982;2022-12-31T00:31:27;12.56;95.26
71047;SHT31;58703;48.978;8.982;2022-12-31T00:33:54;12.63;95.32
71047;SHT31;58703;48.978;8.982;2022-12-31T00:36:26;12.77;94.80
71047;SHT31;58703;48.978;8.982;2022-12-31T00:38:54;12.52;95.34
71047;SHT31;58703;48.978;8.982;2022-12-31T00:41:21;12.49;95.23
71047;SHT31;58703;48.978;8.982;2022-12-31T00:43:47;12.52;95.26
71047;SHT31;58703;48.978;8.982;2022-12-31T00:46:14;12.45;95.50
71047;SHT31;58703;48.978;8.982;2022-12-31T00:48:40;12.55;95.29
71047;SHT31;58703;48.978;8.982;2022-12-31T00:51:07;12.63;94.91
71047;SHT31;58703;48.978;8.982;2022-12-31T00:53:34;12.69;94.64
71047;SHT31;58703;48.978;8.982;2022-12-31T00:56:33;12.85;93.59
71047;SHT31;58703;48.978;8.982;2022-12-31T00:58:52;12.93;93.23
71047;SHT31;58703;48.978;8.982;2022-12-31T01:01:23;12.87;93.56
71047;SHT31;58703;48.978;8.982;2022-12-31T01:03:52;13.17;92.30
71047;SHT31;58703;48.978;8.982;2022-12-31T01:06:19;13.50;91.17
71047;SHT31;58703;48.978;8.982;2022-12-31T01:08:47;13.50;90.95
71047;SHT31;58703;48.978;8.982;2022-12-31T01:11:15;13.64;90.42
71047;SHT31;58703;48.978;8.982;2022-12-31T01:14:14;13.65;90.18
71047;SHT31;58703;48.978;8.982;2022-12-31T01:16:47;14.21;87.97
71047;SHT31;58703;48.978;8.982;2022-12-31T01:19:21;14.53;86.57
71047;SHT31;58703;48.978;8.982;2022-12-31T01:21:48;14.77;85.51
71047;SHT31;58703;48.978;8.982;2022-12-31T01:24:16;14.60;86.32
71047;SHT31;58703;48.978;8.982;2022-12-31T01:26:43;14.80;85.13
71047;SHT31;58703;48.978;8.982;2022-12-31T01:29:11;14.85;84.71
71047;SHT31;58703;48.978;8.982;2022-12-31T01:31:39;15.05;83.35
71047;SHT31;58703;48.978;8.982;2022-12-31T01:34:06;15.00;83.55
71047;SHT31;58703;48.978;8.982;2022-12-31T01:36:34;15.04;83.15
71047;SHT31;58703;48.978;8.982;2022-12-31T01:39:02;15.18;82.23
71047;SHT31;58703;48.978;8.982;2022-12-31T01:41:34;15.01;82.71
71047;SHT31;58703;48.978;8.982;2022-12-31T01:47:01;14.80;83.43
71047;SHT31;58703;48.978;8.982;2022-12-31T01:49:35;14.67;83.87
71047;SHT31;58703;48.978;8.982;2022-12-31T01:52:41;14.62;83.91
71047;SHT31;58703;48.978;8.982;2022-12-31T01:55:29;14.93;81.81
71047;SHT31;58703;48.978;8.982;2022-12-31T01:58:08;14.80;82.27
71047;SHT31;58703;48.978;8.982;2022-12-31T02:00:34;14.64;82.96
71047;SHT31;58703;48.978;8.982;2022-12-31T02:03:03;14.76;81.94
71047;SHT31;58703;48.978;8.982;2022-12-31T02:05:34;14.77;81.86
71047;SHT31;58703;48.978;8.982;2022-12-31T02:08:04;14.87;81.24
71047;SHT31;58703;48.978;8.982;2022-12-31T02:10:31;14.81;81.17
71047;SHT31;58703;48.978;8.982;2022-12-31T02:12:57;14.73;81.07
71047;SHT31;58703;48.978;8.982;2022-12-31T02:18:38;14.81;80.33
71047;SHT31;58703;48.978;8.982;2022-12-31T02:24:35;14.81;79.92
71047;SHT31;58703;48.978;8.982;2022-12-31T02:27:11;14.95;79.17
71047;SHT31;58703;48.978;8.982;2022-12-31T02:30:05;14.98;79.27
71047;SHT31;58703;48.978;8.982;2022-12-31T02:32:42;14.98;79.43
71047;SHT31;58703;48.978;8.982;2022-12-31T02:35:21;15.21;78.13
71047;SHT31;58703;48.978;8.982;2022-12-31T02:37:52;15.39;77.30
71047;SHT31;58703;48.978;8.982;2022-12-31T02:40:21;15.45;77.09
71047;SHT31;58703;48.978;8.982;2022-12-31T02:42:48;15.41;77.25
71047;SHT31;58703;48.978;8.982;2022-12-31T02:45:17;15.28;77.80
71047;SHT31;58703;48.978;8.982;2022-12-31T02:56:52;15.69;76.09
71047;SHT31;58703;48.978;8.982;2022-12-31T03:02:32;15.38;77.48
71047;SHT31;58703;48.978;8.982;2022-12-31T03:05:01;15.35;77.57
71047;SHT31;58703;48.978;8.982;2022-12-31T03:07:30;15.21;78.11
71047;SHT31;58703;48.978;8.982;2022-12-31T03:09:59;15.18;78.34
71047;SHT31;58703;48.978;8.982;2022-12-31T03:12:32;15.05;78.86
71047;SHT31;58703;48.978;8.982;2022-12-31T03:15:31;14.90;79.44
71047;SHT31;58703;48.978;8.982;2022-12-31T03:18:23;14.81;80.02
71047;SHT31;58703;48.978;8.982;2022-12-31T03:21:11;14.67;80.62
71047;SHT31;58703;48.978;8.982;2022-12-31T03:23:57;14.59;81.27
71047;SHT31;58703;48.978;8.982;2022-12-31T03:26:43;14.49;81.61
71047;SHT31;58703;48.978;8.982;2022-12-31T03:29:10;14.39;82.14
71047;SHT31;58703;48.978;8.982;2022-12-31T03:31:37;14.29;82.58
71047;SHT31;58703;48.978;8.982;2022-12-31T03:34:04;14.28;82.69
71047;SHT31;58703;48.978;8.982;2022-12-31T03:36:30;14.25;83.12
71047;SHT31;58703;48.978;8.982;2022-12-31T03:38:57;14.37;82.54
71047;SHT31;58703;48.978;8.982;2022-12-31T03:41:24;14.42;82.37
71047;SHT31;58703;48.978;8.982;2022-12-31T03:43:50;14.32;82.83
71047;SHT31;58703;48.978;8.982;2022-12-31T03:46:16;14.39;82.60
71047;SHT31;58703;48.978;8.982;2022-12-31T03:48:43;14.40;82.56
71047;SHT31;58703;48.978;8.982;2022-12-31T03:51:08;14.32;82.86
71047;SHT31;58703;48.978;8.982;2022-12-31T03:53:35;14.18;83.56
71047;SHT31;58703;48.978;8.982;2022-12-31T03:56:02;14.26;83.24
71047;SHT31;58703;48.978;8.982;2022-12-31T03:58:29;14.23;83.22
71047;SHT31;58703;48.978;8.982;2022-12-31T04:00:56;14.22;83.29
71047;SHT31;58703;48.978;8.982;2022-12-31T04:03:23;14.16;83.84
71047;SHT31;58703;48.978;8.982;2022-12-31T04:05:54;14.15;83.82
71047;SHT31;58703;48.978;8.982;2022-12-31T04:08:21;14.08;84.32
71047;SHT31;58703;48.978;8.982;2022-12-31T04:10:48;13.92;84.76
71047;SHT31;58703;48.978;8.982;2022-12-31T04:13:14;13.89;84.69
71047;SHT31;58703;48.978;8.982;2022-12-31T04:15:40;13.79;85.54
71047;SHT31;58703;48.978;8.982;2022-12-31T04:18:07;13.72;85.98
71047;SHT31;58703;48.978;8.982;2022-12-31T04:20:34;13.91;85.04
71047;SHT31;58703;48.978;8.982;2022-12-31T04:23:01;13.92;85.00
71047;SHT31;58703;48.978;8.982;2022-12-31T04:25:28;14.08;84.66
71047;SHT31;58703;48.978;8.982;2022-12-31T04:27:53;14.19;84.42
71047;SHT31;58703;48.978;8.982;2022-12-31T04:30:20;13.98;85.38
71047;SHT31;58703;48.978;8.982;2022-12-31T04:32:47;13.92;85.35
71047;SHT31;58703;48.978;8.982;2022-12-31T04:35:14;13.88;85.92
71047;SHT31;58703;48.978;8.982;2022-12-31T04:37:40;13.74;86.41
71047;SHT31;58703;48.978;8.982;2022-12-31T04:40:07;13.77;86.25
71047;SHT31;58703;48.978;8.982;2022-12-31T04:42:34;14.02;85.25
71047;SHT31;58703;48.978;8.982;2022-12-31T04:45:02;13.89;85.71
71047;SHT31;58703;48.978;8.982;2022-12-31T04:47:29;13.92;85.90
71047;SHT31;58703;48.978;8.982;2022-12-31T04:49:56;13.95;85.77
71047;SHT31;58703;48.978;8.982;2022-12-31T04:52:23;14.05;85.52
71047;SHT31;58703;48.978;8.982;2022-12-31T04:54:50;14.04;85.87
71047;SHT31;58703;48.978;8.982;2022-12-31T04:57:17;14.09;85.61
71047;SHT31;58703;48.978;8.982;2022-12-31T04:59:44;14.33;84.68
71047;SHT31;58703;48.978;8.982;2022-12-31T05:02:11;14.42;84.44
71047;SHT31;58703;48.978;8.982;2022-12-31T05:04:38;14.47;84.28
71047;SHT31;58703;48.978;8.982;2022-12-31T05:07:03;14.42;84.47
71047;SHT31;58703;48.978;8.982;2022-12-31T05:09:30;14.37;84.81
71047;SHT31;58703;48.978;8.982;2022-12-31T05:11:56;14.46;84.63
71047;SHT31;58703;48.978;8.982;2022-12-31T05:14:23;14.40;84.77
71047;SHT31;58703;48.978;8.982;2022-12-31T05:16:49;14.43;84.49
71047;SHT31;58703;48.978;8.982;2022-12-31T05:19:16;14.47;84.39
71047;SHT31;58703;48.978;8.982;2022-12-31T05:21:43;14.37;84.94
71047;SHT31;58703;48.978;8.982;2022-12-31T05:24:31;14.29;85.20
71047;SHT31;58703;48.978;8.982;2022-12-31T05:26:57;14.22;85.47
71047;SHT31;58703;48.978;8.982;2022-12-31T05:29:24;14.40;84.92
71047;SHT31;58703;48.978;8.982;2022-12-31T05:31:50;14.70;83.81
71047;SHT31;58703;48.978;8.982;2022-12-31T05:34:17;14.83;83.37
71047;SHT31;58703;48.978;8.982;2022-12-31T05:36:44;14.85;83.17
71047;SHT31;58703;48.978;8.982;2022-12-31T05:39:11;14.85;83.29
71047;SHT31;58703;48.978;8.982;2022-12-31T05:41:38;14.88;83.29
71047;SHT31;58703;48.978;8.982;2022-12-31T05:44:04;14.94;83.14
71047;SHT31;58703;48.978;8.982;2022-12-31T05:46:32;14.97;83.08
71047;SHT31;58703;48.978;8.982;2022-12-31T05:48:59;14.97;82.98
71047;SHT31;58703;48.978;8.982;2022-12-31T05:51:25;14.97;83.12
71047;SHT31;58703;48.978;8.982;2022-12-31T05:53:52;14.95;83.11
71047;SHT31;58703;48.978;8.982;2022-12-31T05:56:19;14.93;83.36
71047;SHT31;58703;48.978;8.982;2022-12-31T05:58:46;14.94;83.22
71047;SHT31;58703;48.978;8.982;2022-12-31T06:01:11;14.84;83.69
71047;SHT31;58703;48.978;8.982;2022-12-31T06:03:40;14.88;83.66
71047;SHT31;58703;48.978;8.982;2022-12-31T06:06:07;14.77;84.22
71047;SHT31;58703;48.978;8.982;2022-12-31T06:08:33;14.76;84.23
71047;SHT31;58703;48.978;8.982;2022-12-31T06:11:00;14.73;84.73
71047;SHT31;58703;48.978;8.982;2022-12-31T06:13:27;14.73;84.45
71047;SHT31;58703;48.978;8.982;2022-12-31T06:15:53;14.87;83.64
71047;SHT31;58703;48.978;8.982;2022-12-31T06:18:19;14.85;83.99
71047;SHT31;58703;48.978;8.982;2022-12-31T06:20:45;14.77;84.19
71047;SHT31;58703;48.978;8.982;2022-12-31T06:23:10;14.95;83.41
71047;SHT31;58703;48.978;8.982;2022-12-31T06:25:37;14.94;83.49
71047;SHT31;58703;48.978;8.982;2022-12-31T06:28:04;14.87;83.84
71047;SHT31;58703;48.978;8.982;2022-12-31T06:30:32;14.85;84.13
71047;SHT31;58703;48.978;8.982;2022-12-31T06:32:58;14.94;83.82
71047;SHT31;58703;48.978;8.982;2022-12-31T06:35:25;15.11;83.20
71047;SHT31;58703;48.978;8.982;2022-12-31T06:37:52;15.11;83.11
71047;SHT31;58703;48.978;8.982;2022-12-31T06:40:19;15.08;83.25
71047;SHT31;58703;48.978;8.982;2022-12-31T06:42:45;15.12;83.02
71047;SHT31;58703;48.978;8.982;2022-12-31T06:45:12;15.03;83.40
71047;SHT31;58703;48.978;8.982;2022-12-31T06:47:39;15.15;82.76
71047;SHT31;58703;48.978;8.982;2022-12-31T06:50:06;15.11;83.09
71047;SHT31;58703;48.978;8.982;2022-12-31T06:52:33;15.03;83.17
71047;SHT31;58703;48.978;8.982;2022-12-31T06:55:00;15.07;83.00
71047;SHT31;58703;48.978;8.982;2022-12-31T06:57:26;15.14;82.50
71047;SHT31;58703;48.978;8.982;2022-12-31T06:59:53;15.07;82.73
71047;SHT31;58703;48.978;8.982;2022-12-31T07:11:21;14.72;84.06
71047;SHT31;58703;48.978;8.982;2022-12-31T07:14:18;14.79;83.81
71047;SHT31;58703;48.978;8.982;2022-12-31T07:20:03;14.94;82.85
71047;SHT31;58703;48.978;8.982;2022-12-31T07:22:31;14.97;82.99
71047;SHT31;58703;48.978;8.982;2022-12-31T07:24:58;15.05;82.44
71047;SHT31;58703;48.978;8.982;2022-12-31T07:30:16;15.10;82.23
71047;SHT31;58703;48.978;8.982;2022-12-31T07:33:22;15.15;81.77
71047;SHT31;58703;48.978;8.982;2022-12-31T07:42:31;15.03;82.42
71047;SHT31;58703;48.978;8.982;2022-12-31T07:45:18;15.01;82.30
71047;SHT31;58703;48.978;8.982;2022-12-31T07:47:47;15.12;81.70
71047;SHT31;58703;48.978;8.982;2022-12-31T07:50:15;15.11;81.68
71047;SHT31;58703;48.978;8.982;2022-12-31T07:52:43;15.11;81.88
71047;SHT31;58703;48.978;8.982;2022-12-31T07:55:10;15.18;81.64
71047;SHT31;58703;48.978;8.982;2022-12-31T07:57:51;15.10;81.95
71047;SHT31;58703;48.978;8.982;2022-12-31T08:00:21;15.23;81.51
71047;SHT31;58703;48.978;8.982;2022-12-31T08:08:52;15.55;80.13
71047;SHT31;58703;48.978;8.982;2022-12-31T08:11:47;15.45;80.47
71047;SHT31;58703;48.978;8.982;2022-12-31T08:14:15;15.44;80.75
71047;SHT31;58703;48.978;8.982;2022-12-31T08:16:42;15.55;80.20
71047;SHT31;58703;48.978;8.982;2022-12-31T08:19:20;15.72;79.46
71047;SHT31;58703;48.978;8.982;2022-12-31T08:31:03;15.65;79.55
71047;SHT31;58703;48.978;8.982;2022-12-31T08:41:42;15.75;79.05
71047;SHT31;58703;48.978;8.982;2022-12-31T08:49:32;15.79;79.41
71047;SHT31;58703;48.978;8.982;2022-12-31T08:52:00;15.83;78.84
71047;SHT31;58703;48.978;8.982;2022-12-31T08:54:28;15.79;79.01
71047;SHT31;58703;48.978;8.982;2022-12-31T09:00:03;15.99;78.10
71047;SHT31;58703;48.978;8.982;2022-12-31T09:02:41;16.05;77.74
71047;SHT31;58703;48.978;8.982;2022-12-31T09:11:20;16.64;75.78
71047;SHT31;58703;48.978;8.982;2022-12-31T09:19:12;16.82;75.25
71047;SHT31;58703;48.978;8.982;2022-12-31T09:21:41;16.74;74.99
71047;SHT31;58703;48.978;8.982;2022-12-31T09:24:13;16.70;75.72
71047;SHT31;58703;48.978;8.982;2022-12-31T09:29:47;16.75;75.40
71047;SHT31;58703;48.978;8.982;2022-12-31T09:32:25;16.82;74.53
71047;SHT31;58703;48.978;8.982;2022-12-31T09:37:45;16.81;75.11
71047;SHT31;58703;48.978;8.982;2022-12-31T09:40:53;16.87;74.95
71047;SHT31;58703;48.978;8.982;2022-12-31T09:51:12;17.28;73.52
71047;SHT31;58703;48.978;8.982;2022-12-31T09:56:41;17.93;71.67
71047;SHT31;58703;48.978;8.982;2022-12-31T09:59:27;18.05;71.27
71047;SHT31;58703;48.978;8.982;2022-12-31T10:15:03;17.60;71.99
71047;SHT31;58703;48.978;8.982;2022-12-31T10:17:48;18.10;70.81
71047;SHT31;58703;48.978;8.982;2022-12-31T10:20:23;18.15;70.40
71047;SHT31;58703;48.978;8.982;2022-12-31T10:28:48;18.40;69.67
71047;SHT31;58703;48.978;8.982;2022-12-31T10:31:38;18.49;69.29
71047;SHT31;58703;48.978;8.982;2022-12-31T10:40:29;18.88;67.60
71047;SHT31;58703;48.978;8.982;2022-12-31T11:14:37;18.78;66.31
71047;SHT31;58703;48.978;8.982;2022-12-31T11:17:14;18.66;66.83
71047;SHT31;58703;48.978;8.982;2022-12-31T11:29:01;19.03;65.68
71047;SHT31;58703;48.978;8.982;2022-12-31T11:37:46;19.02;65.79
71047;SHT31;58703;48.978;8.982;2022-12-31T11:40:46;19.03;65.96
71047;SHT31;58703;48.978;8.982;2022-12-31T11:46:50;19.06;65.48
71047;SHT31;58703;48.978;8.982;2022-12-31T11:49:39;19.19;65.91
71047;SHT31;58703;48.978;8.982;2022-12-31T11:55:10;19.12;65.87
71047;SHT31;58703;48.978;8.982;2022-12-31T11:57:48;19.20;65.26
71047;SHT31;58703;48.978;8.982;2022-12-31T12:00:17;19.20;65.31
71047;SHT31;58703;48.978;8.982;2022-12-31T12:02:51;19.23;65.11
71047;SHT31;58703;48.978;8.982;2022-12-31T12:05:21;19.27;65.23
71047;SHT31;58703;48.978;8.982;2022-12-31T12:07:50;19.29;65.28
71047;SHT31;58703;48.978;8.982;2022-12-31T12:10:37;19.07;64.66
71047;SHT31;58703;48.978;8.982;2022-12-31T12:13:26;19.00;65.78
71047;SHT31;58703;48.978;8.982;2022-12-31T12:15:55;19.27;64.78
71047;SHT31;58703;48.978;8.982;2022-12-31T12:18:28;19.27;64.73
71047;SHT31;58703;48.978;8.982;2022-12-31T12:21:10;19.17;64.68
71047;SHT31;58703;48.978;8.982;2022-12-31T12:23:37;19.19;64.61
71047;SHT31;58703;48.978;8.982;2022-12-31T12:26:04;19.33;64.65
71047;SHT31;58703;48.978;8.982;2022-12-31T12:28:44;19.37;64.63
71047;SHT31;58703;48.978;8.982;2022-12-31T12:31:21;19.26;64.87
71047;SHT31;58703;48.978;8.982;2022-12-31T12:33:48;19.34;65.06
71047;SHT31;58703;48.978;8.982;2022-12-31T12:36:16;19.51;64.23
71047;SHT31;58703;48.978;8.982;2022-12-31T12:38:43;19.49;64.36
71047;SHT31;58703;48.978;8.982;2022-12-31T12:41:13;19.37;64.22
71047;SHT31;58703;48.978;8.982;2022-12-31T12:43:42;19.29;64.00
71047;SHT31;58703;48.978;8.982;2022-12-31T12:46:45;19.13;64.80
71047;SHT31;58703;48.978;8.982;2022-12-31T12:49:23;19.31;64.16
71047;SHT31;58703;48.978;8.982;2022-12-31T12:52:27;19.17;64.42
71047;SHT31;58703;48.978;8.982;2022-12-31T12:55:28;19.22;65.27
71047;SHT31;58703;48.978;8.982;2022-12-31T13:00:39;19.26;64.71
71047;SHT31;58703;48.978;8.982;2022-12-31T13:06:30;19.19;65.30
71047;SHT31;58703;48.978;8.982;2022-12-31T13:12:23;19.23;64.94
71047;SHT31;58703;48.978;8.982;2022-12-31T13:15:11;19.10;64.97
71047;SHT31;58703;48.978;8.982;2022-12-31T13:21:06;18.92;65.60
71047;SHT31;58703;48.978;8.982;2022-12-31T13:23:44;18.96;65.39
71047;SHT31;58703;48.978;8.982;2022-12-31T13:26:23;18.88;65.78
71047;SHT31;58703;48.978;8.982;2022-12-31T13:28:52;18.72;65.89
71047;SHT31;58703;48.978;8.982;2022-12-31T13:31:29;18.84;65.40
71047;SHT31;58703;48.978;8.982;2022-12-31T13:34:03;18.84;65.72
71047;SHT31;58703;48.978;8.982;2022-12-31T13:36:32;18.72;65.62
71047;SHT31;58703;48.978;8.982;2022-12-31T13:39:01;18.75;65.69
71047;SHT31;58703;48.978;8.982;2022-12-31T13:41:38;18.68;65.13
71047;SHT31;58703;48.978;8.982;2022-12-31T13:46:48;18.58;66.09
71047;SHT31;58703;48.978;8.982;2022-12-31T13:49:21;18.59;65.87
71047;SHT31;58703;48.978;8.982;2022-12-31T13:51:51;18.58;66.07
71047;SHT31;58703;48.978;8.982;2022-12-31T13:54:41;18.54;65.49
71047;SHT31;58703;48.978;8.982;2022-12-31T14:00:00;18.48;66.02
71047;SHT31;58703;48.978;8.982;2022-12-31T14:05:25;18.43;65.89
71047;SHT31;58703;48.978;8.982;2022-12-31T14:07:55;18.35;65.64
71047;SHT31;58703;48.978;8.982;2022-12-31T14:10:55;18.41;65.99
71047;SHT31;58703;48.978;8.982;2022-12-31T14:16:34;18.25;65.79
71047;SHT31;58703;48.978;8.982;2022-12-31T14:22:00;18.13;67.15
71047;SHT31;58703;48.978;8.982;2022-12-31T14:24:43;17.87;68.38
71047;SHT31;58703;48.978;8.982;2022-12-31T14:27:37;17.70;68.56
71047;SHT31;58703;48.978;8.982;2022-12-31T14:30:26;17.74;68.39
71047;SHT31;58703;48.978;8.982;2022-12-31T14:33:16;17.66;68.35
71047;SHT31;58703;48.978;8.982;2022-12-31T14:41:21;17.69;67.13
71047;SHT31;58703;48.978;8.982;2022-12-31T14:44:25;17.47;69.30
71047;SHT31;58703;48.978;8.982;2022-12-31T14:47:12;17.28;70.40
71047;SHT31;58703;48.978;8.982;2022-12-31T14:52:35;16.85;72.19
71047;SHT31;58703;48.978;8.982;2022-12-31T14:57:44;16.68;72.36
71047;SHT31;58703;48.978;8.982;2022-12-31T15:00:35;16.48;72.19
71047;SHT31;58703;48.978;8.982;2022-12-31T15:06:04;16.31;72.38
71047;SHT31;58703;48.978;8.982;2022-12-31T15:08:47;16.40;71.50
71047;SHT31;58703;48.978;8.982;2022-12-31T15:20:03;15.66;75.21
71047;SHT31;58703;48.978;8.982;2022-12-31T15:22:37;15.41;77.23
71047;SHT31;58703;48.978;8.982;2022-12-31T15:25:28;15.32;77.58
71047;SHT31;58703;48.978;8.982;2022-12-31T15:27:57;15.27;77.57
71047;SHT31;58703;48.978;8.982;2022-12-31T15:33:07;14.97;78.46
71047;SHT31;58703;48.978;8.982;2022-12-31T15:35:46;15.00;79.06
71047;SHT31;58703;48.978;8.982;2022-12-31T15:40:43;14.60;79.59
71047;SHT31;58703;48.978;8.982;2022-12-31T15:46:13;14.23;81.06
71047;SHT31;58703;48.978;8.982;2022-12-31T15:48:48;13.98;81.88
71047;SHT31;58703;48.978;8.982;2022-12-31T15:51:31;13.77;83.02
71047;SHT31;58703;48.978;8.982;2022-12-31T15:53:58;13.67;84.82
71047;SHT31;58703;48.978;8.982;2022-12-31T15:56:39;13.60;84.65
71047;SHT31;58703;48.978;8.982;2022-12-31T15:59:11;13.48;84.32
71047;SHT31;58703;48.978;8.982;2022-12-31T16:01:40;13.40;84.16
71047;SHT31;58703;48.978;8.982;2022-12-31T16:04:23;13.13;85.14
71047;SHT31;58703;48.978;8.982;2022-12-31T16:06:50;12.87;86.35
71047;SHT31;58703;48.978;8.982;2022-12-31T16:09:42;12.87;86.32
71047;SHT31;58703;48.978;8.982;2022-12-31T16:12:21;12.58;86.62
71047;SHT31;58703;48.978;8.982;2022-12-31T16:14:53;12.49;87.28
71047;SHT31;58703;48.978;8.982;2022-12-31T16:17:35;12.39;87.60
71047;SHT31;58703;48.978;8.982;2022-12-31T16:20:20;12.35;88.33
71047;SHT31;58703;48.978;8.982;2022-12-31T16:22:52;12.31;88.43
71047;SHT31;58703;48.978;8.982;2022-12-31T16:25:19;12.38;88.71
71047;SHT31;58703;48.978;8.982;2022-12-31T16:27:47;12.52;88.29
71047;SHT31;58703;48.978;8.982;2022-12-31T16:30:25;12.41;87.80
71047;SHT31;58703;48.978;8.982;2022-12-31T16:32:52;12.46;87.94
71047;SHT31;58703;48.978;8.982;2022-12-31T16:38:10;12.10;88.84
71047;SHT31;58703;48.978;8.982;2022-12-31T16:40:36;12.15;89.38
71047;SHT31;58703;48.978;8.982;2022-12-31T16:43:02;12.22;88.27
71047;SHT31;58703;48.978;8.982;2022-12-31T16:45:35;12.07;88.36
71047;SHT31;58703;48.978;8.982;2022-12-31T16:48:10;12.15;88.29
71047;SHT31;58703;48.978;8.982;2022-12-31T16:50:42;11.90;88.90
71047;SHT31;58703;48.978;8.982;2022-12-31T16:53:11;11.88;89.14
71047;SHT31;58703;48.978;8.982;2022-12-31T16:55:38;12.04;88.69
71047;SHT31;58703;48.978;8.982;2022-12-31T16:58:18;11.84;89.38
71047;SHT31;58703;48.978;8.982;2022-12-31T17:00:45;11.74;89.70
71047;SHT31;58703;48.978;8.982;2022-12-31T17:03:18;11.97;89.08
71047;SHT31;58703;48.978;8.982;2022-12-31T17:08:38;11.66;89.90
71047;SHT31;58703;48.978;8.982;2022-12-31T17:11:04;11.47;90.21
71047;SHT31;58703;48.978;8.982;2022-12-31T17:13:33;11.32;90.31
71047;SHT31;58703;48.978;8.982;2022-12-31T17:15:59;11.20;90.44
71047;SHT31;58703;48.978;8.982;2022-12-31T17:18:29;11.39;89.73
71047;SHT31;58703;48.978;8.982;2022-12-31T17:21:05;11.37;90.22
71047;SHT31;58703;48.978;8.982;2022-12-31T17:23:34;11.30;89.93
71047;SHT31;58703;48.978;8.982;2022-12-31T17:26:19;11.05;90.53
71047;SHT31;58703;48.978;8.982;2022-12-31T17:28:48;11.08;90.84
71047;SHT31;58703;48.978;8.982;2022-12-31T17:31:38;10.92;91.57
71047;SHT31;58703;48.978;8.982;2022-12-31T17:34:18;10.88;91.78
71047;SHT31;58703;48.978;8.982;2022-12-31T17:36:56;10.92;91.43
71047;SHT31;58703;48.978;8.982;2022-12-31T17:39:23;10.65;92.34
71047;SHT31;58703;48.978;8.982;2022-12-31T17:41:50;10.64;92.35
71047;SHT31;58703;48.978;8.982;2022-12-31T17:44:27;10.62;92.47
71047;SHT31;58703;48.978;8.982;2022-12-31T17:46:53;10.71;92.65
71047;SHT31;58703;48.978;8.982;2022-12-31T17:49:25;10.79;92.07
71047;SHT31;58703;48.978;8.982;2022-12-31T17:51:52;10.75;92.00
71047;SHT31;58703;48.978;8.982;2022-12-31T17:54:18;11.12;90.78
71047;SHT31;58703;48.978;8.982;2022-12-31T17:56:44;11.36;90.02
71047;SHT31;58703;48.978;8.982;2022-12-31T17:59:19;11.33;89.60
71047;SHT31;58703;48.978;8.982;2022-12-31T18:01:46;11.52;88.64
71047;SHT31;58703;48.978;8.982;2022-12-31T18:04:14;11.95;87.42
71047;SHT31;58703;48.978;8.982;2022-12-31T18:06:40;12.17;86.70
71047;SHT31;58703;48.978;8.982;2022-12-31T18:09:06;12.70;84.72
71047;SHT31;58703;48.978;8.982;2022-12-31T18:11:32;13.07;83.35
71047;SHT31;58703;48.978;8.982;2022-12-31T18:13:59;13.37;82.09
71047;SHT31;58703;48.978;8.982;2022-12-31T18:16:25;13.57;81.31
71047;SHT31;58703;48.978;8.982;2022-12-31T18:18:50;13.74;80.61
71047;SHT31;58703;48.978;8.982;2022-12-31T18:21:26;13.71;80.56
71047;SHT31;58703;48.978;8.982;2022-12-31T18:23:52;13.71;80.70
71047;SHT31;58703;48.978;8.982;2022-12-31T18:26:21;13.74;80.43
71047;SHT31;58703;48.978;8.982;2022-12-31T18:28:47;13.55;80.99
71047;SHT31;58703;48.978;8.982;2022-12-31T18:31:22;13.40;81.67
71047;SHT31;58703;48.978;8.982;2022-12-31T18:33:49;13.46;81.91
71047;SHT31;58703;48.978;8.982;2022-12-31T18:36:17;13.51;81.43
71047;SHT31;58703;48.978;8.982;2022-12-31T18:38:43;13.50;81.70
71047;SHT31;58703;48.978;8.982;2022-12-31T18:41:25;13.53;81.62
71047;SHT31;58703;48.978;8.982;2022-12-31T18:43:52;13.61;81.46
71047;SHT31;58703;48.978;8.982;2022-12-31T18:46:20;13.71;81.04
71047;SHT31;58703;48.978;8.982;2022-12-31T18:48:46;13.75;80.91
71047;SHT31;58703;48.978;8.982;2022-12-31T18:51:17;13.64;81.11
71047;SHT31;58703;48.978;8.982;2022-12-31T18:53:43;13.68;81.00
71047;SHT31;58703;48.978;8.982;2022-12-31T18:56:14;13.64;81.12
71047;SHT31;58703;48.978;8.982;2022-12-31T18:58:40;13.47;81.70
71047;SHT31;58703;48.978;8.982;2022-12-31T19:01:31;13.46;81.80
71047;SHT31;58703;48.978;8.982;2022-12-31T19:04:10;13.48;81.58
71047;SHT31;58703;48.978;8.982;2022-12-31T19:06:37;13.38;81.82
71047;SHT31;58703;48.978;8.982;2022-12-31T19:09:03;13.20;82.52
71047;SHT31;58703;48.978;8.982;2022-12-31T19:11:28;13.26;82.29
71047;SHT31;58703;48.978;8.982;2022-12-31T19:13:57;13.21;82.49
71047;SHT31;58703;48.978;8.982;2022-12-31T19:16:23;13.06;82.97
71047;SHT31;58703;48.978;8.982;2022-12-31T19:18:49;13.13;83.03
71047;SHT31;58703;48.978;8.982;2022-12-31T19:21:20;13.07;83.10
71047;SHT31;58703;48.978;8.982;2022-12-31T19:23:47;13.09;83.25
71047;SHT31;58703;48.978;8.982;2022-12-31T19:26:18;13.06;83.25
71047;SHT31;58703;48.978;8.982;2022-12-31T19:28:45;13.20;82.80
71047;SHT31;58703;48.978;8.982;2022-12-31T19:31:11;13.24;82.52
71047;SHT31;58703;48.978;8.982;2022-12-31T19:33:37;13.21;82.71
71047;SHT31;58703;48.978;8.982;2022-12-31T19:36:03;13.11;83.09
71047;SHT31;58703;48.978;8.982;2022-12-31T19:38:29;13.07;83.19
71047;SHT31;58703;48.978;8.982;2022-12-31T19:40:56;13.03;83.37
71047;SHT31;58703;48.978;8.982;2022-12-31T19:43:23;12.85;83.87
71047;SHT31;58703;48.978;8.982;2022-12-31T19:45:49;12.80;84.12
71047;SHT31;58703;48.978;8.982;2022-12-31T19:48:17;12.83;84.01
71047;SHT31;58703;48.978;8.982;2022-12-31T19:50:46;12.90;83.76
71047;SHT31;58703;48.978;8.982;2022-12-31T19:53:14;12.89;83.79
71047;SHT31;58703;48.978;8.982;2022-12-31T19:55:40;12.95;83.63
71047;SHT31;58703;48.978;8.982;2022-12-31T19:58:17;12.97;83.28
71047;SHT31;58703;48.978;8.982;2022-12-31T20:00:43;13.14;82.73
71047;SHT31;58703;48.978;8.982;2022-12-31T20:03:10;13.11;82.75
71047;SHT31;58703;48.978;8.982;2022-12-31T20:05:36;13.13;82.77